sensor_id;sensor_type;location;lat;lon;timestamp;P1;durP1;ratioP1;P2;durP2;ratioP2
61435;SDS011;47304;47.456;19.160;2022-11-15T00:01:06;25.90;;;12.00;;
61435;SDS011;47304;47.456;19.160;2022-11-15T00:03:41;22.80;;;12.10;;
61435;SDS011;47304;47.456;19.160;2022-11-15T00:06:08;25.20;;;12.30;;
61435;SDS011;47304;47.456;19.160;2022-11-15T00:08:36;23.80;;;12.10;;
61435;SDS011;47304;47.456;19.160;2022-11-15T00:11:04;24.20;;;13.20;;
61435;SDS011;47304;47.456;19.160;2022-11-15T00:13:32;26.00;;;13.50;;
61435;SDS011;47304;47.456;19.160;2022-11-15T00:16:00;25.90;;;13.60;;
61435;SDS011;47304;47.456;19.160;2022-11-15T00:18:28;26.10;;;14.10;;
61435;SDS011;47304;47.456;19.160;2022-11-15T00:21:02;22.40;;;12.30;;
61435;SDS011;47304;47.456;19.160;2022-11-15T00:23:35;20.40;;;11.10;;
61435;SDS011;47304;47.456;19.160;2022-11-15T00:26:03;23.00;;;12.60;;
61435;SDS011;47304;47.456;19.160;2022-11-15T00:28:31;25.70;;;13.60;;
61435;SDS011;47304;47.456;19.160;2022-11-15T00:31:02;22.90;;;12.20;;
61435;SDS011;47304;47.456;19.160;2022-11-15T00:33:31;20.10;;;11.40;;
61435;SDS011;47304;47.456;19.160;2022-11-15T00:36:00;20.60;;;11.10;;
61435;SDS011;47304;47.456;19.160;2022-11-15T00:38:33;22.90;;;12.80;;
61435;SDS011;47304;47.456;19.160;2022-11-15T00:43:36;21.30;;;11.20;;
61435;SDS011;47304;47.456;19.160;2022-11-15T00:46:04;20.40;;;10.90;;
61435;SDS011;47304;47.456;19.160;2022-11-15T00:48:32;20.80;;;11.50;;
61435;SDS011;47304;47.456;19.160;2022-11-15T00:50:59;19.70;;;10.90;;
61435;SDS011;47304;47.456;19.160;2022-11-15T00:53:27;21.40;;;12.10;;
61435;SDS011;47304;47.456;19.160;2022-11-15T00:55:55;22.90;;;11.90;;
61435;SDS011;47304;47.456;19.160;2022-11-15T00:58:23;23.90;;;12.50;;
61435;SDS011;47304;47.456;19.160;2022-11-15T01:00:50;19.00;;;10.30;;
61435;SDS011;47304;47.456;19.160;2022-11-15T01:03:18;21.50;;;12.30;;
61435;SDS011;47304;47.456;19.160;2022-11-15T01:05:46;22.70;;;12.00;;
61435;SDS011;47304;47.456;19.160;2022-11-15T01:08:14;18.60;;;10.20;;
61435;SDS011;47304;47.456;19.160;2022-11-15T01:10:43;17.00;;;9.80;;
61435;SDS011;47304;47.456;19.160;2022-11-15T01:13:10;22.20;;;11.30;;
61435;SDS011;47304;47.456;19.160;2022-11-15T01:15:41;19.30;;;10.60;;
61435;SDS011;47304;47.456;19.160;2022-11-15T01:18:08;19.00;;;10.30;;
61435;SDS011;47304;47.456;19.160;2022-11-15T01:20:40;19.20;;;10.30;;
61435;SDS011;47304;47.456;19.160;2022-11-15T01:23:08;18.10;;;9.20;;
61435;SDS011;47304;47.456;19.160;2022-11-15T01:25:37;22.60;;;11.90;;
61435;SDS011;47304;47.456;19.160;2022-11-15T01:28:05;21.10;;;11.00;;
61435;SDS011;47304;47.456;19.160;2022-11-15T01:30:32;26.20;;;11.60;;
61435;SDS011;47304;47.456;19.160;2022-11-15T01:33:00;17.80;;;9.70;;
61435;SDS011;47304;47.456;19.160;2022-11-15T01:35:27;20.00;;;10.50;;
61435;SDS011;47304;47.456;19.160;2022-11-15T01:37:55;18.30;;;9.90;;
61435;SDS011;47304;47.456;19.160;2022-11-15T01:40:23;19.90;;;10.20;;
61435;SDS011;47304;47.456;19.160;2022-11-15T01:42:50;21.70;;;11.70;;
61435;SDS011;47304;47.456;19.160;2022-11-15T01:45:18;22.10;;;11.30;;
61435;SDS011;47304;47.456;19.160;2022-11-15T01:47:47;19.60;;;11.60;;
61435;SDS011;47304;47.456;19.160;2022-11-15T01:50:20;23.40;;;11.80;;
61435;SDS011;47304;47.456;19.160;2022-11-15T01:52:52;18.90;;;10.50;;
61435;SDS011;47304;47.456;19.160;2022-11-15T01:55:21;22.00;;;11.10;;
61435;SDS011;47304;47.456;19.160;2022-11-15T02:00:22;21.00;;;10.90;;
61435;SDS011;47304;47.456;19.160;2022-11-15T02:02:50;20.40;;;11.30;;
61435;SDS011;47304;47.456;19.160;2022-11-15T02:05:18;24.10;;;12.60;;
61435;SDS011;47304;47.456;19.160;2022-11-15T02:07:45;23.90;;;12.20;;
61435;SDS011;47304;47.456;19.160;2022-11-15T02:10:18;25.40;;;11.90;;
61435;SDS011;47304;47.456;19.160;2022-11-15T02:12:47;23.30;;;12.80;;
61435;SDS011;47304;47.456;19.160;2022-11-15T02:15:16;24.70;;;12.70;;
61435;SDS011;47304;47.456;19.160;2022-11-15T02:20:58;23.10;;;11.40;;
61435;SDS011;47304;47.456;19.160;2022-11-15T02:32:18;24.00;;;11.90;;
61435;SDS011;47304;47.456;19.160;2022-11-15T02:34:58;22.00;;;11.50;;
61435;SDS011;47304;47.456;19.160;2022-11-15T02:40:26;18.70;;;10.00;;
61435;SDS011;47304;47.456;19.160;2022-11-15T02:43:23;23.20;;;11.30;;
61435;SDS011;47304;47.456;19.160;2022-11-15T02:45:52;18.00;;;9.00;;
61435;SDS011;47304;47.456;19.160;2022-11-15T02:48:25;20.70;;;10.80;;
61435;SDS011;47304;47.456;19.160;2022-11-15T02:50:53;19.90;;;10.60;;
61435;SDS011;47304;47.456;19.160;2022-11-15T02:53:24;20.00;;;10.00;;
61435;SDS011;47304;47.456;19.160;2022-11-15T02:58:35;25.60;;;9.30;;
61435;SDS011;47304;47.456;19.160;2022-11-15T03:06:49;21.40;;;11.10;;
61435;SDS011;47304;47.456;19.160;2022-11-15T03:12:12;17.70;;;9.00;;
61435;SDS011;47304;47.456;19.160;2022-11-15T03:17:36;16.90;;;7.60;;
61435;SDS011;47304;47.456;19.160;2022-11-15T03:20:08;19.20;;;9.20;;
61435;SDS011;47304;47.456;19.160;2022-11-15T03:22:38;15.50;;;8.10;;
61435;SDS011;47304;47.456;19.160;2022-11-15T03:25:10;17.40;;;9.50;;
61435;SDS011;47304;47.456;19.160;2022-11-15T03:27:46;17.10;;;9.00;;
61435;SDS011;47304;47.456;19.160;2022-11-15T03:30:18;17.80;;;10.00;;
61435;SDS011;47304;47.456;19.160;2022-11-15T03:32:47;18.30;;;9.30;;
61435;SDS011;47304;47.456;19.160;2022-11-15T03:35:44;18.30;;;9.00;;
61435;SDS011;47304;47.456;19.160;2022-11-15T03:38:33;18.20;;;9.70;;
61435;SDS011;47304;47.456;19.160;2022-11-15T03:41:04;17.90;;;9.30;;
61435;SDS011;47304;47.456;19.160;2022-11-15T03:43:39;15.80;;;9.00;;
61435;SDS011;47304;47.456;19.160;2022-11-15T03:46:14;21.10;;;10.30;;
61435;SDS011;47304;47.456;19.160;2022-11-15T03:48:48;18.50;;;9.80;;
61435;SDS011;47304;47.456;19.160;2022-11-15T03:51:19;20.60;;;9.90;;
61435;SDS011;47304;47.456;19.160;2022-11-15T03:53:47;20.20;;;11.10;;
61435;SDS011;47304;47.456;19.160;2022-11-15T03:56:14;21.10;;;10.40;;
61435;SDS011;47304;47.456;19.160;2022-11-15T03:58:42;20.10;;;10.80;;
61435;SDS011;47304;47.456;19.160;2022-11-15T04:01:09;18.20;;;9.20;;
61435;SDS011;47304;47.456;19.160;2022-11-15T04:03:37;17.90;;;8.90;;
61435;SDS011;47304;47.456;19.160;2022-11-15T04:06:05;17.10;;;9.00;;
61435;SDS011;47304;47.456;19.160;2022-11-15T04:08:33;19.00;;;10.10;;
61435;SDS011;47304;47.456;19.160;2022-11-15T04:11:00;17.00;;;9.30;;
61435;SDS011;47304;47.456;19.160;2022-11-15T04:13:28;18.70;;;10.40;;
61435;SDS011;47304;47.456;19.160;2022-11-15T04:15:56;23.30;;;11.00;;
61435;SDS011;47304;47.456;19.160;2022-11-15T04:18:24;22.30;;;10.00;;
61435;SDS011;47304;47.456;19.160;2022-11-15T04:20:52;22.30;;;10.70;;
61435;SDS011;47304;47.456;19.160;2022-11-15T04:23:20;20.60;;;10.90;;
61435;SDS011;47304;47.456;19.160;2022-11-15T04:25:51;20.70;;;10.70;;
61435;SDS011;47304;47.456;19.160;2022-11-15T04:28:21;19.60;;;9.90;;
61435;SDS011;47304;47.456;19.160;2022-11-15T04:30:49;22.50;;;10.20;;
61435;SDS011;47304;47.456;19.160;2022-11-15T04:33:17;19.80;;;11.00;;
61435;SDS011;47304;47.456;19.160;2022-11-15T04:35:45;19.80;;;10.90;;
61435;SDS011;47304;47.456;19.160;2022-11-15T04:38:12;19.30;;;10.40;;
61435;SDS011;47304;47.456;19.160;2022-11-15T04:40:40;18.80;;;10.20;;
61435;SDS011;47304;47.456;19.160;2022-11-15T04:43:08;22.50;;;10.50;;
61435;SDS011;47304;47.456;19.160;2022-11-15T04:45:35;19.20;;;10.30;;
61435;SDS011;47304;47.456;19.160;2022-11-15T04:48:03;19.30;;;11.00;;
61435;SDS011;47304;47.456;19.160;2022-11-15T04:50:31;20.60;;;10.00;;
61435;SDS011;47304;47.456;19.160;2022-11-15T04:52:58;18.40;;;9.60;;
61435;SDS011;47304;47.456;19.160;2022-11-15T04:55:26;21.60;;;11.50;;
61435;SDS011;47304;47.456;19.160;2022-11-15T04:57:58;19.30;;;9.60;;
61435;SDS011;47304;47.456;19.160;2022-11-15T05:00:29;19.60;;;10.00;;
61435;SDS011;47304;47.456;19.160;2022-11-15T05:02:57;16.50;;;9.50;;
61435;SDS011;47304;47.456;19.160;2022-11-15T05:05:24;19.10;;;10.00;;
61435;SDS011;47304;47.456;19.160;2022-11-15T05:07:52;18.30;;;9.70;;
61435;SDS011;47304;47.456;19.160;2022-11-15T05:10:20;19.40;;;11.30;;
61435;SDS011;47304;47.456;19.160;2022-11-15T05:12:47;20.80;;;10.70;;
61435;SDS011;47304;47.456;19.160;2022-11-15T05:15:15;23.50;;;12.50;;
61435;SDS011;47304;47.456;19.160;2022-11-15T05:17:43;24.10;;;12.90;;
61435;SDS011;47304;47.456;19.160;2022-11-15T05:20:10;27.00;;;14.70;;
61435;SDS011;47304;47.456;19.160;2022-11-15T05:22:40;21.80;;;12.50;;
61435;SDS011;47304;47.456;19.160;2022-11-15T05:25:08;23.30;;;12.20;;
61435;SDS011;47304;47.456;19.160;2022-11-15T05:27:36;28.30;;;12.40;;
61435;SDS011;47304;47.456;19.160;2022-11-15T05:30:03;23.10;;;12.10;;
61435;SDS011;47304;47.456;19.160;2022-11-15T05:32:31;23.60;;;13.10;;
61435;SDS011;47304;47.456;19.160;2022-11-15T05:34:59;21.40;;;11.90;;
61435;SDS011;47304;47.456;19.160;2022-11-15T05:37:28;21.00;;;11.20;;
61435;SDS011;47304;47.456;19.160;2022-11-15T05:39:56;19.90;;;10.80;;
61435;SDS011;47304;47.456;19.160;2022-11-15T05:42:25;25.60;;;12.40;;
61435;SDS011;47304;47.456;19.160;2022-11-15T05:44:54;23.00;;;12.90;;
61435;SDS011;47304;47.456;19.160;2022-11-15T05:47:24;24.40;;;12.50;;
61435;SDS011;47304;47.456;19.160;2022-11-15T05:49:56;22.60;;;11.30;;
61435;SDS011;47304;47.456;19.160;2022-11-15T05:52:25;22.40;;;12.50;;
61435;SDS011;47304;47.456;19.160;2022-11-15T05:54:57;22.80;;;11.80;;
61435;SDS011;47304;47.456;19.160;2022-11-15T05:57:26;22.30;;;12.10;;
61435;SDS011;47304;47.456;19.160;2022-11-15T05:59:53;23.60;;;11.60;;
61435;SDS011;47304;47.456;19.160;2022-11-15T06:02:25;26.00;;;13.90;;
61435;SDS011;47304;47.456;19.160;2022-11-15T06:04:53;26.90;;;15.10;;
61435;SDS011;47304;47.456;19.160;2022-11-15T06:07:20;23.50;;;12.50;;
61435;SDS011;47304;47.456;19.160;2022-11-15T06:09:48;23.00;;;11.80;;
61435;SDS011;47304;47.456;19.160;2022-11-15T06:12:16;21.80;;;12.40;;
61435;SDS011;47304;47.456;19.160;2022-11-15T06:14:43;27.60;;;15.80;;
61435;SDS011;47304;47.456;19.160;2022-11-15T06:17:11;26.40;;;14.00;;
61435;SDS011;47304;47.456;19.160;2022-11-15T06:19:39;26.30;;;13.60;;
61435;SDS011;47304;47.456;19.160;2022-11-15T06:22:07;23.00;;;12.40;;
61435;SDS011;47304;47.456;19.160;2022-11-15T06:24:34;22.50;;;12.60;;
61435;SDS011;47304;47.456;19.160;2022-11-15T06:27:02;18.80;;;10.10;;
61435;SDS011;47304;47.456;19.160;2022-11-15T06:29:30;23.80;;;12.40;;
61435;SDS011;47304;47.456;19.160;2022-11-15T06:31:57;22.30;;;11.50;;
61435;SDS011;47304;47.456;19.160;2022-11-15T06:34:25;21.10;;;11.00;;
61435;SDS011;47304;47.456;19.160;2022-11-15T06:36:53;24.60;;;13.60;;
61435;SDS011;47304;47.456;19.160;2022-11-15T06:39:20;24.30;;;12.80;;
61435;SDS011;47304;47.456;19.160;2022-11-15T06:41:48;21.50;;;11.40;;
61435;SDS011;47304;47.456;19.160;2022-11-15T06:44:15;22.20;;;12.70;;
61435;SDS011;47304;47.456;19.160;2022-11-15T06:46:43;21.00;;;11.90;;
61435;SDS011;47304;47.456;19.160;2022-11-15T06:49:10;24.00;;;12.40;;
61435;SDS011;47304;47.456;19.160;2022-11-15T06:51:38;22.70;;;11.70;;
61435;SDS011;47304;47.456;19.160;2022-11-15T06:54:06;22.40;;;12.40;;
61435;SDS011;47304;47.456;19.160;2022-11-15T06:56:34;25.60;;;13.60;;
61435;SDS011;47304;47.456;19.160;2022-11-15T06:59:01;21.30;;;12.20;;
61435;SDS011;47304;47.456;19.160;2022-11-15T07:01:29;21.30;;;11.30;;
61435;SDS011;47304;47.456;19.160;2022-11-15T07:03:57;25.90;;;13.20;;
61435;SDS011;47304;47.456;19.160;2022-11-15T07:06:24;20.20;;;10.90;;
61435;SDS011;47304;47.456;19.160;2022-11-15T07:08:52;22.60;;;13.40;;
61435;SDS011;47304;47.456;19.160;2022-11-15T07:11:20;20.70;;;12.00;;
61435;SDS011;47304;47.456;19.160;2022-11-15T07:13:47;23.90;;;12.80;;
61435;SDS011;47304;47.456;19.160;2022-11-15T07:16:15;21.40;;;11.40;;
61435;SDS011;47304;47.456;19.160;2022-11-15T07:18:42;22.10;;;12.40;;
61435;SDS011;47304;47.456;19.160;2022-11-15T07:21:10;25.10;;;13.20;;
61435;SDS011;47304;47.456;19.160;2022-11-15T07:23:38;21.60;;;12.50;;
61435;SDS011;47304;47.456;19.160;2022-11-15T07:26:07;22.90;;;12.30;;
61435;SDS011;47304;47.456;19.160;2022-11-15T07:28:35;25.00;;;13.90;;
61435;SDS011;47304;47.456;19.160;2022-11-15T07:31:04;24.90;;;13.00;;
61435;SDS011;47304;47.456;19.160;2022-11-15T07:33:34;26.60;;;14.50;;
61435;SDS011;47304;47.456;19.160;2022-11-15T07:36:03;22.90;;;13.60;;
61435;SDS011;47304;47.456;19.160;2022-11-15T07:38:33;24.00;;;14.40;;
61435;SDS011;47304;47.456;19.160;2022-11-15T07:41:09;30.10;;;17.30;;
61435;SDS011;47304;47.456;19.160;2022-11-15T07:43:37;28.30;;;14.70;;
61435;SDS011;47304;47.456;19.160;2022-11-15T07:46:05;36.70;;;20.50;;
61435;SDS011;47304;47.456;19.160;2022-11-15T07:48:34;29.10;;;15.90;;
61435;SDS011;47304;47.456;19.160;2022-11-15T07:51:14;24.70;;;14.10;;
61435;SDS011;47304;47.456;19.160;2022-11-15T07:53:43;25.40;;;15.30;;
61435;SDS011;47304;47.456;19.160;2022-11-15T07:56:11;25.00;;;15.30;;
61435;SDS011;47304;47.456;19.160;2022-11-15T07:58:39;26.80;;;16.10;;
61435;SDS011;47304;47.456;19.160;2022-11-15T08:01:08;26.10;;;15.00;;
61435;SDS011;47304;47.456;19.160;2022-11-15T08:03:37;28.60;;;14.70;;
61435;SDS011;47304;47.456;19.160;2022-11-15T08:06:04;24.70;;;14.40;;
61435;SDS011;47304;47.456;19.160;2022-11-15T08:08:32;25.10;;;14.80;;
61435;SDS011;47304;47.456;19.160;2022-11-15T08:11:00;24.10;;;14.50;;
61435;SDS011;47304;47.456;19.160;2022-11-15T08:13:28;29.00;;;15.40;;
61435;SDS011;47304;47.456;19.160;2022-11-15T08:15:59;27.00;;;14.30;;
61435;SDS011;47304;47.456;19.160;2022-11-15T08:18:28;26.90;;;14.80;;
61435;SDS011;47304;47.456;19.160;2022-11-15T08:21:02;27.20;;;15.60;;
61435;SDS011;47304;47.456;19.160;2022-11-15T08:23:30;27.40;;;16.10;;
61435;SDS011;47304;47.456;19.160;2022-11-15T08:25:59;27.20;;;15.30;;
61435;SDS011;47304;47.456;19.160;2022-11-15T08:28:27;23.90;;;14.00;;
61435;SDS011;47304;47.456;19.160;2022-11-15T08:30:55;22.80;;;15.00;;
61435;SDS011;47304;47.456;19.160;2022-11-15T08:33:23;27.60;;;14.10;;
61435;SDS011;47304;47.456;19.160;2022-11-15T08:35:51;27.10;;;15.70;;
61435;SDS011;47304;47.456;19.160;2022-11-15T08:38:19;25.40;;;15.40;;
61435;SDS011;47304;47.456;19.160;2022-11-15T08:40:46;26.60;;;16.00;;
61435;SDS011;47304;47.456;19.160;2022-11-15T08:43:14;25.80;;;14.80;;
61435;SDS011;47304;47.456;19.160;2022-11-15T08:45:42;30.40;;;16.20;;
61435;SDS011;47304;47.456;19.160;2022-11-15T08:48:09;26.60;;;16.50;;
61435;SDS011;47304;47.456;19.160;2022-11-15T08:50:37;27.30;;;15.80;;
61435;SDS011;47304;47.456;19.160;2022-11-15T08:53:05;30.50;;;16.10;;
61435;SDS011;47304;47.456;19.160;2022-11-15T08:55:37;27.70;;;15.60;;
61435;SDS011;47304;47.456;19.160;2022-11-15T08:58:06;25.60;;;14.10;;
61435;SDS011;47304;47.456;19.160;2022-11-15T09:00:33;27.80;;;15.70;;
61435;SDS011;47304;47.456;19.160;2022-11-15T09:03:05;28.20;;;15.60;;
61435;SDS011;47304;47.456;19.160;2022-11-15T09:08:03;27.20;;;15.10;;
61435;SDS011;47304;47.456;19.160;2022-11-15T09:10:51;25.00;;;15.80;;
61435;SDS011;47304;47.456;19.160;2022-11-15T09:13:19;27.50;;;16.20;;
61435;SDS011;47304;47.456;19.160;2022-11-15T09:15:46;25.60;;;16.10;;
61435;SDS011;47304;47.456;19.160;2022-11-15T09:18:14;28.50;;;16.40;;
61435;SDS011;47304;47.456;19.160;2022-11-15T09:20:42;26.60;;;15.60;;
61435;SDS011;47304;47.456;19.160;2022-11-15T09:23:09;26.00;;;16.00;;
61435;SDS011;47304;47.456;19.160;2022-11-15T09:25:37;28.60;;;15.80;;
61435;SDS011;47304;47.456;19.160;2022-11-15T09:28:08;24.90;;;14.90;;
61435;SDS011;47304;47.456;19.160;2022-11-15T09:30:35;26.30;;;14.80;;
61435;SDS011;47304;47.456;19.160;2022-11-15T09:33:07;25.10;;;15.60;;
61435;SDS011;47304;47.456;19.160;2022-11-15T09:35:36;25.80;;;15.50;;
61435;SDS011;47304;47.456;19.160;2022-11-15T09:38:03;28.60;;;16.50;;
61435;SDS011;47304;47.456;19.160;2022-11-15T09:40:32;26.00;;;14.30;;
61435;SDS011;47304;47.456;19.160;2022-11-15T09:49:19;24.90;;;15.00;;
61435;SDS011;47304;47.456;19.160;2022-11-15T09:51:49;30.90;;;16.50;;
61435;SDS011;47304;47.456;19.160;2022-11-15T09:54:31;24.80;;;15.70;;
61435;SDS011;47304;47.456;19.160;2022-11-15T10:00:31;25.30;;;15.20;;
61435;SDS011;47304;47.456;19.160;2022-11-15T10:03:34;25.90;;;15.20;;
61435;SDS011;47304;47.456;19.160;2022-11-15T10:06:05;25.80;;;15.00;;
61435;SDS011;47304;47.456;19.160;2022-11-15T10:11:11;23.20;;;13.50;;
61435;SDS011;47304;47.456;19.160;2022-11-15T10:14:14;24.80;;;14.10;;
61435;SDS011;47304;47.456;19.160;2022-11-15T10:24:27;35.00;;;20.10;;
61435;SDS011;47304;47.456;19.160;2022-11-15T10:29:25;24.70;;;14.60;;
61435;SDS011;47304;47.456;19.160;2022-11-15T10:31:53;24.70;;;13.90;;
61435;SDS011;47304;47.456;19.160;2022-11-15T10:34:23;27.00;;;16.80;;
61435;SDS011;47304;47.456;19.160;2022-11-15T10:36:54;25.60;;;15.60;;
61435;SDS011;47304;47.456;19.160;2022-11-15T10:39:24;28.00;;;15.70;;
61435;SDS011;47304;47.456;19.160;2022-11-15T10:41:52;27.90;;;15.40;;
61435;SDS011;47304;47.456;19.160;2022-11-15T10:49:25;27.90;;;16.40;;
61435;SDS011;47304;47.456;19.160;2022-11-15T10:54:43;24.20;;;14.20;;
61435;SDS011;47304;47.456;19.160;2022-11-15T10:57:15;23.30;;;13.20;;
61435;SDS011;47304;47.456;19.160;2022-11-15T11:00:01;24.40;;;13.70;;
61435;SDS011;47304;47.456;19.160;2022-11-15T11:02:38;26.30;;;15.40;;
61435;SDS011;47304;47.456;19.160;2022-11-15T11:05:25;25.60;;;15.10;;
61435;SDS011;47304;47.456;19.160;2022-11-15T11:07:56;23.70;;;14.50;;
61435;SDS011;47304;47.456;19.160;2022-11-15T11:10:29;30.50;;;17.60;;
61435;SDS011;47304;47.456;19.160;2022-11-15T11:13:27;29.60;;;18.20;;
61435;SDS011;47304;47.456;19.160;2022-11-15T11:18:33;27.70;;;16.00;;
61435;SDS011;47304;47.456;19.160;2022-11-15T11:21:08;29.70;;;18.10;;
61435;SDS011;47304;47.456;19.160;2022-11-15T11:32:32;34.70;;;19.60;;
61435;SDS011;47304;47.456;19.160;2022-11-15T11:35:24;29.60;;;17.10;;
61435;SDS011;47304;47.456;19.160;2022-11-15T11:41:20;28.00;;;16.60;;
61435;SDS011;47304;47.456;19.160;2022-11-15T11:46:48;29.60;;;17.70;;
61435;SDS011;47304;47.456;19.160;2022-11-15T11:55:31;34.60;;;19.00;;
61435;SDS011;47304;47.456;19.160;2022-11-15T11:58:20;31.80;;;19.00;;
61435;SDS011;47304;47.456;19.160;2022-11-15T12:03:57;32.40;;;18.90;;
61435;SDS011;47304;47.456;19.160;2022-11-15T12:09:23;32.40;;;17.30;;
61435;SDS011;47304;47.456;19.160;2022-11-15T12:12:21;32.40;;;17.10;;
61435;SDS011;47304;47.456;19.160;2022-11-15T12:15:13;29.40;;;17.30;;
61435;SDS011;47304;47.456;19.160;2022-11-15T12:29:05;31.70;;;18.00;;
61435;SDS011;47304;47.456;19.160;2022-11-15T12:34:03;32.00;;;17.80;;
61435;SDS011;47304;47.456;19.160;2022-11-15T12:37:02;33.30;;;18.40;;
61435;SDS011;47304;47.456;19.160;2022-11-15T12:47:50;31.80;;;18.20;;
61435;SDS011;47304;47.456;19.160;2022-11-15T12:50:39;35.90;;;18.80;;
61435;SDS011;47304;47.456;19.160;2022-11-15T13:01:10;27.30;;;15.40;;
61435;SDS011;47304;47.456;19.160;2022-11-15T13:04:07;33.10;;;18.70;;
61435;SDS011;47304;47.456;19.160;2022-11-15T13:06:45;33.90;;;19.20;;
61435;SDS011;47304;47.456;19.160;2022-11-15T13:14:54;28.20;;;15.80;;
61435;SDS011;47304;47.456;19.160;2022-11-15T13:17:25;34.20;;;17.00;;
61435;SDS011;47304;47.456;19.160;2022-11-15T13:22:26;32.60;;;18.40;;
61435;SDS011;47304;47.456;19.160;2022-11-15T13:24:55;33.50;;;19.10;;
61435;SDS011;47304;47.456;19.160;2022-11-15T13:27:23;29.80;;;16.90;;
61435;SDS011;47304;47.456;19.160;2022-11-15T13:29:52;31.90;;;17.10;;
61435;SDS011;47304;47.456;19.160;2022-11-15T13:32:20;29.80;;;17.80;;
61435;SDS011;47304;47.456;19.160;2022-11-15T13:34:49;30.80;;;17.80;;
61435;SDS011;47304;47.456;19.160;2022-11-15T13:39:47;28.30;;;15.80;;
61435;SDS011;47304;47.456;19.160;2022-11-15T13:42:16;27.80;;;15.70;;
61435;SDS011;47304;47.456;19.160;2022-11-15T13:44:57;26.90;;;16.70;;
61435;SDS011;47304;47.456;19.160;2022-11-15T13:47:27;27.80;;;15.70;;
61435;SDS011;47304;47.456;19.160;2022-11-15T13:49:59;26.90;;;15.10;;
61435;SDS011;47304;47.456;19.160;2022-11-15T13:52:30;39.40;;;21.10;;
61435;SDS011;47304;47.456;19.160;2022-11-15T13:55:04;28.10;;;16.60;;
61435;SDS011;47304;47.456;19.160;2022-11-15T13:57:57;24.30;;;13.00;;
61435;SDS011;47304;47.456;19.160;2022-11-15T14:05:41;28.00;;;14.70;;
61435;SDS011;47304;47.456;19.160;2022-11-15T14:10:47;24.70;;;13.80;;
61435;SDS011;47304;47.456;19.160;2022-11-15T14:13:28;25.00;;;14.00;;
61435;SDS011;47304;47.456;19.160;2022-11-15T14:16:18;27.30;;;16.90;;
61435;SDS011;47304;47.456;19.160;2022-11-15T14:18:49;30.20;;;15.80;;
61435;SDS011;47304;47.456;19.160;2022-11-15T14:21:18;25.90;;;14.40;;
61435;SDS011;47304;47.456;19.160;2022-11-15T14:23:47;24.40;;;14.10;;
61435;SDS011;47304;47.456;19.160;2022-11-15T14:26:30;23.00;;;13.40;;
61435;SDS011;47304;47.456;19.160;2022-11-15T14:31:49;25.90;;;14.50;;
61435;SDS011;47304;47.456;19.160;2022-11-15T14:34:17;26.40;;;14.50;;
61435;SDS011;47304;47.456;19.160;2022-11-15T14:36:44;28.30;;;15.80;;
61435;SDS011;47304;47.456;19.160;2022-11-15T14:39:12;25.60;;;14.50;;
61435;SDS011;47304;47.456;19.160;2022-11-15T14:41:40;28.30;;;14.70;;
61435;SDS011;47304;47.456;19.160;2022-11-15T14:44:09;27.10;;;14.90;;
61435;SDS011;47304;47.456;19.160;2022-11-15T14:46:38;27.50;;;15.10;;
61435;SDS011;47304;47.456;19.160;2022-11-15T14:49:05;25.80;;;14.90;;
61435;SDS011;47304;47.456;19.160;2022-11-15T14:51:33;26.30;;;14.30;;
61435;SDS011;47304;47.456;19.160;2022-11-15T14:54:00;24.70;;;14.30;;
61435;SDS011;47304;47.456;19.160;2022-11-15T14:56:28;24.40;;;13.50;;
61435;SDS011;47304;47.456;19.160;2022-11-15T14:58:59;26.80;;;14.80;;
61435;SDS011;47304;47.456;19.160;2022-11-15T15:01:26;26.50;;;14.70;;
61435;SDS011;47304;47.456;19.160;2022-11-15T15:03:54;27.30;;;14.30;;
61435;SDS011;47304;47.456;19.160;2022-11-15T15:06:22;26.50;;;14.80;;
61435;SDS011;47304;47.456;19.160;2022-11-15T15:08:50;26.70;;;14.40;;
61435;SDS011;47304;47.456;19.160;2022-11-15T15:11:21;25.40;;;14.30;;
61435;SDS011;47304;47.456;19.160;2022-11-15T15:13:51;28.50;;;16.30;;
61435;SDS011;47304;47.456;19.160;2022-11-15T15:16:20;26.00;;;15.00;;
61435;SDS011;47304;47.456;19.160;2022-11-15T15:18:47;26.00;;;15.10;;
61435;SDS011;47304;47.456;19.160;2022-11-15T15:21:25;22.80;;;12.90;;
61435;SDS011;47304;47.456;19.160;2022-11-15T15:24:01;25.20;;;14.40;;
61435;SDS011;47304;47.456;19.160;2022-11-15T15:26:29;25.20;;;14.60;;
61435;SDS011;47304;47.456;19.160;2022-11-15T15:28:57;24.80;;;13.50;;
61435;SDS011;47304;47.456;19.160;2022-11-15T15:31:25;23.60;;;12.80;;
61435;SDS011;47304;47.456;19.160;2022-11-15T15:33:52;27.10;;;15.20;;
61435;SDS011;47304;47.456;19.160;2022-11-15T15:36:20;25.50;;;14.70;;
61435;SDS011;47304;47.456;19.160;2022-11-15T15:38:47;27.90;;;15.10;;
61435;SDS011;47304;47.456;19.160;2022-11-15T15:41:15;28.20;;;15.80;;
61435;SDS011;47304;47.456;19.160;2022-11-15T15:43:44;29.30;;;16.10;;
61435;SDS011;47304;47.456;19.160;2022-11-15T15:46:12;39.20;;;21.10;;
61435;SDS011;47304;47.456;19.160;2022-11-15T15:48:42;29.70;;;15.70;;
61435;SDS011;47304;47.456;19.160;2022-11-15T15:51:10;42.40;;;21.90;;
61435;SDS011;47304;47.456;19.160;2022-11-15T15:53:47;30.70;;;17.00;;
61435;SDS011;47304;47.456;19.160;2022-11-15T15:56:15;23.30;;;14.70;;
61435;SDS011;47304;47.456;19.160;2022-11-15T15:58:45;29.70;;;16.90;;
61435;SDS011;47304;47.456;19.160;2022-11-15T16:01:13;38.90;;;20.00;;
61435;SDS011;47304;47.456;19.160;2022-11-15T16:03:41;33.30;;;18.20;;
61435;SDS011;47304;47.456;19.160;2022-11-15T16:09:01;28.80;;;16.40;;
61435;SDS011;47304;47.456;19.160;2022-11-15T16:11:45;29.10;;;17.00;;
61435;SDS011;47304;47.456;19.160;2022-11-15T16:14:14;31.20;;;17.00;;
61435;SDS011;47304;47.456;19.160;2022-11-15T16:16:41;34.30;;;18.90;;
61435;SDS011;47304;47.456;19.160;2022-11-15T16:19:09;33.00;;;17.50;;
61435;SDS011;47304;47.456;19.160;2022-11-15T16:21:37;34.00;;;18.40;;
61435;SDS011;47304;47.456;19.160;2022-11-15T16:24:05;31.60;;;18.80;;
61435;SDS011;47304;47.456;19.160;2022-11-15T16:26:32;27.90;;;17.60;;
61435;SDS011;47304;47.456;19.160;2022-11-15T16:29:02;32.10;;;19.20;;
61435;SDS011;47304;47.456;19.160;2022-11-15T16:31:30;33.00;;;17.60;;
61435;SDS011;47304;47.456;19.160;2022-11-15T16:33:57;33.60;;;18.60;;
61435;SDS011;47304;47.456;19.160;2022-11-15T16:36:25;33.50;;;17.70;;
61435;SDS011;47304;47.456;19.160;2022-11-15T16:41:25;33.00;;;16.90;;
61435;SDS011;47304;47.456;19.160;2022-11-15T16:43:53;32.40;;;16.80;;
61435;SDS011;47304;47.456;19.160;2022-11-15T16:46:24;33.60;;;17.70;;
61435;SDS011;47304;47.456;19.160;2022-11-15T16:48:53;38.30;;;20.80;;
61435;SDS011;47304;47.456;19.160;2022-11-15T16:51:21;32.50;;;17.90;;
61435;SDS011;47304;47.456;19.160;2022-11-15T16:53:50;37.10;;;18.60;;
61435;SDS011;47304;47.456;19.160;2022-11-15T16:56:27;37.00;;;19.50;;
61435;SDS011;47304;47.456;19.160;2022-11-15T16:58:57;38.80;;;19.30;;
61435;SDS011;47304;47.456;19.160;2022-11-15T17:01:27;39.90;;;20.90;;
61435;SDS011;47304;47.456;19.160;2022-11-15T17:03:57;41.90;;;20.40;;